createdAt,value
2018-02-16T00:01:04.219Z,93.60
2018-02-16T00:03:32.418Z,93.60
2018-02-16T00:06:00.612Z,93.80
2018-02-16T00:08:28.816Z,93.60
2018-02-16T00:10:57.028Z,93.60
2018-02-16T00:13:25.260Z,93.30
2018-02-16T00:15:53.469Z,93.30
2018-02-16T00:18:21.808Z,93.40
2018-02-16T00:20:50.005Z,93.40
2018-02-16T00:23:18.209Z,93.20
2018-02-16T00:25:47.914Z,93.10
2018-02-16T00:28:16.136Z,93.10
2018-02-16T00:30:44.352Z,93.10
2018-02-16T00:33:12.548Z,93.00
2018-02-16T00:35:40.722Z,93.00
2018-02-16T00:38:08.934Z,92.90
2018-02-16T00:40:37.174Z,92.90
2018-02-16T00:43:05.360Z,93.00
2018-02-16T00:45:33.790Z,93.10
2018-02-16T00:48:01.993Z,93.30
2018-02-16T00:50:30.218Z,93.00
2018-02-16T00:52:59.200Z,93.00
2018-02-16T00:55:28.152Z,93.00
2018-02-16T00:57:56.352Z,92.90
2018-02-16T01:00:24.567Z,92.80
2018-02-16T01:02:52.840Z,93.10
2018-02-16T01:05:21.033Z,93.30
2018-02-16T01:07:49.255Z,92.90
2018-02-16T01:10:17.458Z,92.90
2018-02-16T01:12:45.702Z,93.00
2018-02-16T01:15:13.906Z,92.80
2018-02-16T01:17:42.881Z,93.10
2018-02-16T01:20:11.089Z,92.70
2018-02-16T01:22:39.288Z,92.80
2018-02-16T01:25:07.729Z,93.20
2018-02-16T01:27:36.683Z,92.80
2018-02-16T01:30:04.894Z,92.80
2018-02-16T01:32:33.892Z,92.90
2018-02-16T01:35:02.919Z,93.00
2018-02-16T01:37:31.916Z,93.10
2018-02-16T01:40:00.107Z,93.10
2018-02-16T01:42:28.303Z,93.20
2018-02-16T01:44:56.530Z,92.80
2018-02-16T01:47:24.719Z,92.90
2018-02-16T01:50:05.768Z,92.90
2018-02-16T01:52:34.753Z,92.70
2018-02-16T01:55:03.739Z,92.70
2018-02-16T01:57:31.941Z,92.70
2018-02-16T02:00:00.924Z,93.00
2018-02-16T02:02:29.915Z,93.00
2018-02-16T02:04:58.116Z,93.00
2018-02-16T02:07:26.353Z,93.00
2018-02-16T02:09:55.346Z,93.00
2018-02-16T02:12:23.533Z,93.00
2018-02-16T02:14:52.515Z,92.90
2018-02-16T02:17:20.726Z,92.90
2018-02-16T02:19:48.965Z,92.70
2018-02-16T02:22:17.165Z,92.80
2018-02-16T02:24:45.399Z,93.00
2018-02-16T02:27:13.643Z,93.00
2018-02-16T02:29:41.894Z,93.30
2018-02-16T02:32:10.886Z,93.10
2018-02-16T02:34:39.862Z,93.00
2018-02-16T02:37:08.094Z,93.00
2018-02-16T02:39:36.432Z,93.10
2018-02-16T02:42:04.649Z,93.20
2018-02-16T02:44:32.876Z,93.30
2018-02-16T02:47:01.861Z,93.10
2018-02-16T02:49:30.108Z,93.10
2018-02-16T02:51:58.340Z,93.00
2018-02-16T02:54:27.286Z,92.90
2018-02-16T02:56:55.561Z,92.90
2018-02-16T02:59:23.766Z,92.80
2018-02-16T03:01:52.730Z,93.20
2018-02-16T03:04:21.029Z,93.20
2018-02-16T03:06:49.265Z,93.40
2018-02-16T03:09:17.527Z,92.90
2018-02-16T03:11:45.721Z,92.90
2018-02-16T03:14:13.895Z,92.60
2018-02-16T03:16:42.165Z,92.60
2018-02-16T03:19:10.357Z,92.50
2018-02-16T03:21:38.713Z,92.70
2018-02-16T03:24:06.908Z,92.60
2018-02-16T03:26:35.103Z,92.80
2018-02-16T03:29:03.309Z,92.80
2018-02-16T03:31:32.276Z,92.70
2018-02-16T03:34:00.507Z,92.70
2018-02-16T03:36:28.719Z,92.70
2018-02-16T03:38:56.913Z,92.60
2018-02-16T03:41:25.161Z,92.80
2018-02-16T03:43:53.351Z,92.70
2018-02-16T03:46:21.569Z,92.90
2018-02-16T03:48:49.756Z,92.90
2018-02-16T03:51:17.953Z,93.00
2018-02-16T03:53:46.190Z,93.00
2018-02-16T03:56:14.386Z,92.90
2018-02-16T03:58:42.578Z,93.00
2018-02-16T04:01:10.786Z,93.20
2018-02-16T04:03:38.984Z,93.30
2018-02-16T04:06:08.013Z,93.10
2018-02-16T04:08:36.228Z,93.00
2018-02-16T04:11:04.419Z,93.20
2018-02-16T04:13:32.663Z,93.30
2018-02-16T04:16:00.856Z,93.50
2018-02-16T04:18:29.069Z,93.30
2018-02-16T04:20:58.049Z,93.50
2018-02-16T04:23:27.027Z,93.70
2018-02-16T04:25:56.740Z,93.70
2018-02-16T04:28:25.782Z,93.60
2018-02-16T04:30:54.020Z,93.50
2018-02-16T04:33:22.983Z,93.50
2018-02-16T04:35:51.164Z,93.50
2018-02-16T04:38:20.181Z,93.80
2018-02-16T04:40:48.380Z,93.70
2018-02-16T04:43:16.679Z,93.80
2018-02-16T04:45:44.895Z,93.50
2018-02-16T04:48:13.076Z,93.70
2018-02-16T04:50:41.279Z,93.50
2018-02-16T04:53:10.293Z,93.50
2018-02-16T04:55:38.519Z,93.50
2018-02-16T04:58:06.736Z,93.40
2018-02-16T05:00:34.955Z,93.40
2018-02-16T05:03:03.156Z,93.70
2018-02-16T05:05:31.351Z,93.60
2018-02-16T05:08:00.320Z,93.80
2018-02-16T05:10:28.523Z,93.80
2018-02-16T05:12:57.541Z,93.80
2018-02-16T05:15:25.739Z,93.80
2018-02-16T05:17:53.984Z,93.70
2018-02-16T05:20:22.188Z,93.60
2018-02-16T05:22:50.376Z,93.90
2018-02-16T05:25:18.566Z,93.80
2018-02-16T05:27:46.764Z,93.80
2018-02-16T05:30:15.731Z,93.90
2018-02-16T05:32:43.945Z,93.90
2018-02-16T05:35:12.180Z,93.80
2018-02-16T05:37:40.364Z,93.90
2018-02-16T05:40:08.556Z,93.90
2018-02-16T05:42:37.504Z,94.00
2018-02-16T05:45:06.598Z,94.20
2018-02-16T05:47:34.827Z,94.20
2018-02-16T05:50:03.856Z,94.20
2018-02-16T05:52:32.234Z,94.20
2018-02-16T05:55:00.433Z,94.30
2018-02-16T05:57:28.646Z,94.30
2018-02-16T05:59:57.647Z,94.20
2018-02-16T06:02:26.625Z,94.30
2018-02-16T06:04:54.820Z,94.30
2018-02-16T06:07:23.782Z,94.30
2018-02-16T06:09:51.988Z,94.30
2018-02-16T06:12:20.970Z,94.50
2018-02-16T06:14:49.204Z,94.50
2018-02-16T06:17:17.539Z,94.60
2018-02-16T06:19:46.502Z,94.60
2018-02-16T06:22:14.718Z,94.60
2018-02-16T06:24:42.929Z,94.60
2018-02-16T06:27:11.175Z,94.80
2018-02-16T06:29:39.378Z,94.90
2018-02-16T06:32:07.589Z,94.90
2018-02-16T06:34:36.576Z,94.80
2018-02-16T06:37:04.801Z,94.80
2018-02-16T06:39:33.121Z,94.80
2018-02-16T06:42:02.093Z,94.70
2018-02-16T06:44:30.304Z,94.70
2018-02-16T06:46:58.661Z,94.80
2018-02-16T06:49:26.882Z,94.80
2018-02-16T06:51:55.107Z,94.80
2018-02-16T06:54:23.294Z,94.80
2018-02-16T06:56:51.499Z,94.90
2018-02-16T06:59:20.479Z,95.10
2018-02-16T07:01:49.501Z,95.10
2018-02-16T07:04:18.590Z,95.20
2018-02-16T07:06:47.614Z,95.40
2018-02-16T07:09:16.424Z,95.40
2018-02-16T07:11:44.623Z,95.40
2018-02-16T07:14:12.963Z,95.50
2018-02-16T07:16:41.185Z,95.70
2018-02-16T07:19:09.395Z,95.60
2018-02-16T07:21:37.581Z,95.60
2018-02-16T07:24:06.654Z,95.60
2018-02-16T07:26:35.679Z,95.60
2018-02-16T07:29:03.986Z,95.90
2018-02-16T07:31:32.442Z,95.60
2018-02-16T07:34:00.643Z,95.60
2018-02-16T07:36:28.850Z,95.50
2018-02-16T07:38:57.079Z,95.50
2018-02-16T07:41:25.303Z,95.70
2018-02-16T07:43:54.270Z,95.90
2018-02-16T07:46:22.478Z,95.90
2018-02-16T07:48:51.494Z,95.90
2018-02-16T07:51:20.798Z,95.90
2018-02-16T07:53:53.697Z,95.60
2018-02-16T07:56:22.952Z,95.10
2018-02-16T07:58:51.934Z,95.00
2018-02-16T08:01:20.168Z,95.00
2018-02-16T08:03:48.356Z,94.80
2018-02-16T08:06:16.576Z,94.40
2018-02-16T08:08:45.555Z,94.30
2018-02-16T08:11:13.742Z,94.20
2018-02-16T08:13:42.778Z,94.20
2018-02-16T08:16:10.996Z,94.20
2018-02-16T08:18:39.235Z,94.30
2018-02-16T08:21:07.457Z,94.10
2018-02-16T08:23:35.642Z,94.00
2018-02-16T08:26:04.602Z,93.50
2018-02-16T08:28:33.620Z,93.40
2018-02-16T08:31:01.811Z,93.40
2018-02-16T08:33:30.101Z,93.20
2018-02-16T08:35:58.319Z,93.20
2018-02-16T08:38:26.543Z,93.10
2018-02-16T08:40:55.666Z,92.90
2018-02-16T08:43:23.876Z,92.90
2018-02-16T08:45:52.114Z,92.70
2018-02-16T08:48:20.316Z,92.40
2018-02-16T08:50:48.569Z,92.30
2018-02-16T08:53:16.923Z,92.10
2018-02-16T08:55:45.915Z,91.70
2018-02-16T08:58:14.908Z,91.90
2018-02-16T09:00:43.910Z,91.70
2018-02-16T09:03:12.159Z,91.70
2018-02-16T09:05:40.353Z,91.70
2018-02-16T09:08:08.579Z,91.80
2018-02-16T09:10:36.764Z,91.80
2018-02-16T09:13:04.983Z,91.50
2018-02-16T09:15:33.929Z,91.20
2018-02-16T09:18:02.150Z,91.20
2018-02-16T09:20:31.107Z,91.10
2018-02-16T09:22:59.321Z,91.10
2018-02-16T09:25:28.264Z,90.80
2018-02-16T09:27:56.650Z,90.80
2018-02-16T09:30:24.856Z,90.80
2018-02-16T09:32:53.043Z,90.60
2018-02-16T09:35:22.068Z,90.60
2018-02-16T09:37:50.269Z,90.60
2018-02-16T09:40:19.524Z,90.30
2018-02-16T09:42:47.765Z,90.00
2018-02-16T09:45:15.975Z,90.00
2018-02-16T09:47:44.966Z,89.20
2018-02-16T09:50:13.160Z,89.20
2018-02-16T09:52:41.377Z,89.20
2018-02-16T09:55:10.456Z,88.80
2018-02-16T09:57:38.674Z,89.00
2018-02-16T10:00:07.691Z,88.40
2018-02-16T10:02:35.893Z,88.30
2018-02-16T10:05:04.076Z,87.30
2018-02-16T10:07:32.336Z,86.50
2018-02-16T10:10:00.556Z,85.70
2018-02-16T10:12:30.282Z,86.90
2018-02-16T10:14:58.600Z,86.90
2018-02-16T10:17:26.877Z,86.40
2018-02-16T10:19:55.056Z,84.70
2018-02-16T10:22:23.280Z,84.10
2018-02-16T10:24:51.501Z,84.30
2018-02-16T10:27:19.730Z,82.80
2018-02-16T10:29:47.940Z,84.30
2018-02-16T10:32:16.922Z,81.50
2018-02-16T10:34:45.894Z,81.90
2018-02-16T10:37:14.220Z,81.90
2018-02-16T10:39:42.441Z,81.80
2018-02-16T10:42:10.703Z,81.00
2018-02-16T10:44:38.925Z,80.70
2018-02-16T10:47:07.901Z,78.70
2018-02-16T10:49:36.930Z,78.70
2018-02-16T10:52:05.157Z,79.50
2018-02-16T10:54:33.439Z,78.30
2018-02-16T10:57:01.653Z,78.30
2018-02-16T10:59:29.870Z,77.90
2018-02-16T11:05:08.586Z,74.90
2018-02-16T11:07:42.565Z,75.20
2018-02-16T11:10:11.545Z,75.30
2018-02-16T11:12:41.292Z,73.90
2018-02-16T11:15:09.546Z,73.90
2018-02-16T11:17:38.499Z,70.40
2018-02-16T11:20:06.704Z,70.40
2018-02-16T11:22:36.418Z,69.60
2018-02-16T11:25:04.623Z,69.50
2018-02-16T11:27:32.860Z,68.30
2018-02-16T11:30:01.052Z,69.80
2018-02-16T11:32:30.059Z,66.10
2018-02-16T11:34:59.043Z,66.50
2018-02-16T11:37:28.016Z,66.70
2018-02-16T11:39:57.071Z,66.20
2018-02-16T11:42:25.313Z,66.20
2018-02-16T11:44:54.274Z,64.00
2018-02-16T11:47:22.483Z,64.10
2018-02-16T11:49:51.446Z,63.20
2018-02-16T11:52:19.622Z,63.00
2018-02-16T11:54:47.828Z,62.90
2018-02-16T11:57:16.796Z,62.10
2018-02-16T11:59:44.999Z,62.00
2018-02-16T12:02:13.330Z,62.20
2018-02-16T12:04:41.551Z,64.00
2018-02-16T12:07:10.527Z,64.00
2018-02-16T12:09:39.521Z,61.00
2018-02-16T12:12:07.841Z,60.80
2018-02-16T12:14:36.052Z,60.00
2018-02-16T12:17:04.324Z,61.30
2018-02-16T12:19:32.533Z,61.00
2018-02-16T12:22:01.565Z,57.20
2018-02-16T12:24:29.759Z,57.20
2018-02-16T12:26:57.970Z,57.80
2018-02-16T12:29:26.181Z,58.80
2018-02-16T12:31:55.327Z,60.00
2018-02-16T12:34:23.537Z,59.70
2018-02-16T12:36:51.767Z,59.80
2018-02-16T12:39:19.955Z,60.00
2018-02-16T12:41:48.205Z,59.60
2018-02-16T12:44:16.442Z,57.00
2018-02-16T12:46:45.407Z,54.70
2018-02-16T12:49:14.217Z,54.70
2018-02-16T12:51:43.249Z,55.40
2018-02-16T12:54:11.448Z,55.40
2018-02-16T12:56:39.668Z,55.90
2018-02-16T12:59:08.647Z,52.70
2018-02-16T13:01:37.689Z,51.50
2018-02-16T13:04:06.456Z,51.40
2018-02-16T13:06:35.429Z,54.50
2018-02-16T13:09:03.612Z,54.40
2018-02-16T13:11:32.595Z,55.00
2018-02-16T13:14:01.643Z,55.70
2018-02-16T13:16:29.843Z,55.60
2018-02-16T13:18:58.056Z,52.10
2018-02-16T13:21:27.026Z,50.90
2018-02-16T13:23:56.018Z,51.20
2018-02-16T13:26:24.224Z,51.20
2018-02-16T13:28:53.180Z,49.00
2018-02-16T13:31:21.376Z,48.80
2018-02-16T13:33:49.564Z,48.60
2018-02-16T13:36:18.532Z,51.20
2018-02-16T13:38:46.746Z,51.10
2018-02-16T13:41:14.966Z,50.20
2018-02-16T13:43:43.186Z,51.00
2018-02-16T13:46:12.146Z,51.90
2018-02-16T13:48:40.358Z,52.00
2018-02-16T13:51:09.308Z,53.40
2018-02-16T13:53:37.538Z,53.50
2018-02-16T13:56:06.490Z,52.40
2018-02-16T13:58:36.199Z,52.60
2018-02-16T14:01:05.209Z,54.10
2018-02-16T14:03:33.396Z,54.10
2018-02-16T14:06:02.361Z,50.50
2018-02-16T14:08:30.627Z,50.50
2018-02-16T14:10:58.822Z,50.70
2018-02-16T14:13:27.026Z,49.20
2018-02-16T14:15:56.193Z,49.20
2018-02-16T14:18:24.363Z,49.20
2018-02-16T14:20:52.576Z,49.10
2018-02-16T14:23:20.778Z,49.30
2018-02-16T14:25:48.984Z,47.80
2018-02-16T14:28:17.996Z,48.50
2018-02-16T14:30:46.204Z,48.50
2018-02-16T14:33:15.266Z,49.30
2018-02-16T14:35:43.495Z,49.20
2018-02-16T14:38:11.878Z,51.10
2018-02-16T14:40:40.083Z,50.60
2018-02-16T14:43:08.282Z,53.10
2018-02-16T14:45:36.484Z,54.40
2018-02-16T14:48:06.073Z,52.40
2018-02-16T14:50:34.310Z,52.30
2018-02-16T14:53:02.528Z,50.90
2018-02-16T14:55:31.483Z,48.40
2018-02-16T14:57:59.685Z,48.30
2018-02-16T15:00:27.910Z,50.20
2018-02-16T15:02:56.101Z,50.20
2018-02-16T15:05:24.341Z,48.60
2018-02-16T15:07:52.570Z,48.40
2018-02-16T15:10:20.835Z,47.40
2018-02-16T15:12:49.072Z,46.00
2018-02-16T15:15:17.301Z,46.20
2018-02-16T15:17:45.529Z,44.70
2018-02-16T15:20:13.771Z,46.30
2018-02-16T15:22:41.998Z,48.10
2018-02-16T15:25:10.241Z,48.50
2018-02-16T15:27:39.248Z,48.70
2018-02-16T15:30:07.518Z,48.60
2018-02-16T15:32:36.509Z,47.60
2018-02-16T15:35:05.476Z,46.70
2018-02-16T15:37:35.188Z,46.20
2018-02-16T15:40:03.426Z,46.20
2018-02-16T15:42:31.640Z,46.90
2018-02-16T15:44:59.841Z,46.30
2018-02-16T15:47:28.902Z,46.20
2018-02-16T15:49:57.798Z,46.20
2018-02-16T15:52:26.775Z,46.30
2018-02-16T15:54:55.015Z,46.20
2018-02-16T15:57:23.230Z,45.80
2018-02-16T15:59:51.452Z,43.90
2018-02-16T16:02:20.485Z,47.80
2018-02-16T16:04:48.745Z,47.80
2018-02-16T16:07:16.951Z,48.40
2018-02-16T16:09:45.183Z,47.90
2018-02-16T16:12:14.163Z,48.80
2018-02-16T16:14:42.368Z,48.20
2018-02-16T16:17:10.591Z,48.90
2018-02-16T16:19:38.835Z,49.60
2018-02-16T16:22:07.165Z,49.90
2018-02-16T16:24:36.209Z,50.20
2018-02-16T16:27:04.416Z,50.10
2018-02-16T16:29:32.629Z,50.00
2018-02-16T16:32:01.625Z,51.60
2018-02-16T16:34:30.577Z,53.00
2018-02-16T16:36:58.777Z,53.00
2018-02-16T16:39:27.735Z,55.30
2018-02-16T16:41:55.934Z,55.30
2018-02-16T16:44:24.271Z,56.10
2018-02-16T16:46:52.485Z,56.20
2018-02-16T16:49:20.672Z,56.70
2018-02-16T16:51:48.859Z,57.40
2018-02-16T16:54:17.822Z,59.60
2018-02-16T16:56:46.065Z,59.50
2018-02-16T16:59:14.265Z,60.30
2018-02-16T17:01:42.501Z,61.90
2018-02-16T17:04:11.466Z,65.90
2018-02-16T17:06:40.458Z,66.40
2018-02-16T17:09:08.744Z,66.90
2018-02-16T17:11:37.730Z,68.10
2018-02-16T17:14:06.794Z,68.20
2018-02-16T17:16:35.154Z,68.20
2018-02-16T17:19:03.419Z,68.80
2018-02-16T17:21:31.633Z,69.30
2018-02-16T17:23:59.848Z,69.80
2018-02-16T17:26:28.833Z,72.30
2018-02-16T17:28:57.094Z,72.20
2018-02-16T17:31:25.775Z,73.80
2018-02-16T17:33:53.996Z,74.60
2018-02-16T17:36:22.220Z,75.60
2018-02-16T17:38:50.543Z,76.60
2018-02-16T17:41:19.983Z,77.90
2018-02-16T17:43:49.023Z,78.00
2018-02-16T17:46:18.014Z,78.60
2018-02-16T17:48:46.208Z,78.60
2018-02-16T17:51:15.184Z,78.80
2018-02-16T17:53:43.437Z,78.70
2018-02-16T17:56:11.776Z,79.30
2018-02-16T17:58:39.977Z,79.80
2018-02-16T18:01:08.240Z,80.20
2018-02-16T18:03:36.469Z,80.80
2018-02-16T18:06:04.800Z,80.90
2018-02-16T18:08:32.987Z,80.70
2018-02-16T18:11:01.226Z,80.80
2018-02-16T18:13:30.251Z,83.10
2018-02-16T18:15:58.437Z,83.10
2018-02-16T18:18:26.781Z,83.70
2018-02-16T18:20:55.734Z,85.30
2018-02-16T18:23:24.073Z,85.20
2018-02-16T18:25:52.289Z,85.90
2018-02-16T18:28:20.485Z,85.70
2018-02-16T18:30:49.521Z,87.90
2018-02-16T18:33:17.748Z,87.20
2018-02-16T18:35:47.321Z,87.90
2018-02-16T18:38:18.466Z,87.80
2018-02-16T18:40:46.678Z,88.40
2018-02-16T18:43:14.881Z,88.20
2018-02-16T18:45:43.090Z,88.70
2018-02-16T18:48:12.058Z,88.30
2018-02-16T18:50:40.554Z,89.20
2018-02-16T18:53:08.756Z,90.00
2018-02-16T18:55:37.006Z,90.40
2018-02-16T18:58:05.278Z,90.80
2018-02-16T19:00:33.590Z,91.30
2018-02-16T19:03:01.795Z,91.90
2018-02-16T19:05:30.765Z,91.30
2018-02-16T19:07:59.764Z,90.90
2018-02-16T19:10:28.823Z,90.90
2018-02-16T19:12:57.078Z,90.80
2018-02-16T19:15:26.031Z,90.40
2018-02-16T19:17:54.289Z,90.40
2018-02-16T19:20:22.500Z,90.70
2018-02-16T19:22:52.078Z,91.50
2018-02-16T19:25:20.284Z,91.50
2018-02-16T19:27:48.496Z,91.80
2018-02-16T19:30:16.719Z,92.00
2018-02-16T19:32:44.947Z,92.10
2018-02-16T19:35:13.145Z,91.90
2018-02-16T19:37:41.344Z,91.90
2018-02-16T19:40:09.726Z,91.80
2018-02-16T19:42:38.747Z,91.80
2018-02-16T19:45:07.757Z,91.70
2018-02-16T19:47:35.951Z,91.70
2018-02-16T19:50:04.139Z,92.00
2018-02-16T19:52:32.597Z,91.80
2018-02-16T19:55:00.831Z,92.00
2018-02-16T19:57:29.877Z,92.40
2018-02-16T19:59:58.054Z,92.40
2018-02-16T20:02:26.267Z,92.50
2018-02-16T20:04:54.475Z,92.50
2018-02-16T20:07:22.792Z,92.50
2018-02-16T20:09:50.982Z,92.40
2018-02-16T20:12:19.228Z,92.40
2018-02-16T20:14:47.457Z,92.50
2018-02-16T20:17:15.678Z,92.50
2018-02-16T20:19:44.115Z,92.50
2018-02-16T20:22:14.086Z,92.50
2018-02-16T20:24:42.293Z,92.50
2018-02-16T20:27:10.518Z,92.70
2018-02-16T20:29:39.481Z,92.90
2018-02-16T20:32:07.694Z,92.90
2018-02-16T20:34:35.885Z,92.90
2018-02-16T20:37:04.106Z,92.90
2018-02-16T20:39:33.093Z,93.70
2018-02-16T20:42:02.095Z,93.40
2018-02-16T20:44:31.962Z,93.00
2018-02-16T20:47:00.194Z,93.00
2018-02-16T20:49:29.210Z,92.90
2018-02-16T20:51:57.447Z,92.60
2018-02-16T20:54:26.452Z,92.30
2018-02-16T20:56:54.654Z,92.30
2018-02-16T20:59:23.827Z,92.50
2018-02-16T21:01:52.686Z,92.50
2018-02-16T21:04:20.954Z,92.60
2018-02-16T21:06:49.167Z,92.60
2018-02-16T21:09:17.384Z,92.60
2018-02-16T21:11:45.590Z,92.70
2018-02-16T21:14:13.803Z,92.80
2018-02-16T21:16:42.767Z,92.80
2018-02-16T21:19:11.019Z,92.80
2018-02-16T21:21:39.270Z,92.70
2018-02-16T21:24:08.310Z,92.60
2018-02-16T21:26:36.524Z,92.60
2018-02-16T21:29:06.520Z,92.70
2018-02-16T21:31:34.729Z,92.70
2018-02-16T21:34:03.792Z,92.70
2018-02-16T21:36:33.540Z,92.90
2018-02-16T21:39:02.531Z,92.90
2018-02-16T21:41:31.490Z,92.90
2018-02-16T21:43:59.694Z,92.90
2018-02-16T21:46:28.695Z,92.90
2018-02-16T21:48:57.669Z,93.10
2018-02-16T21:51:26.667Z,93.00
2018-02-16T21:53:55.770Z,92.90
2018-02-16T21:56:24.008Z,92.90
2018-02-16T21:58:52.233Z,92.80
2018-02-16T22:01:21.258Z,93.00
2018-02-16T22:03:49.539Z,92.90
2018-02-16T22:06:17.771Z,93.00
2018-02-16T22:08:46.748Z,93.00
2018-02-16T22:11:14.963Z,92.90
2018-02-16T22:13:43.969Z,92.80
2018-02-16T22:16:12.255Z,92.80
2018-02-16T22:18:40.473Z,92.70
2018-02-16T22:21:08.750Z,92.60
2018-02-16T22:23:36.962Z,92.70
2018-02-16T22:26:05.224Z,92.70
2018-02-16T22:28:34.224Z,92.90
2018-02-16T22:31:03.184Z,92.60
2018-02-16T22:33:31.399Z,92.60
2018-02-16T22:36:00.368Z,93.00
2018-02-16T22:38:28.576Z,92.90
2018-02-16T22:40:56.768Z,92.90
2018-02-16T22:43:24.974Z,92.80
2018-02-16T22:45:53.184Z,92.80
2018-02-16T22:48:22.142Z,93.00
2018-02-16T22:50:50.396Z,93.00
2018-02-16T22:53:18.593Z,93.30
2018-02-16T22:55:46.812Z,93.20
2018-02-16T22:58:15.786Z,93.30
2018-02-16T23:00:44.028Z,93.00
2018-02-16T23:03:12.242Z,92.90
2018-02-16T23:05:40.566Z,92.90
2018-02-16T23:08:08.790Z,92.80
2018-02-16T23:10:36.996Z,92.70
2018-02-16T23:13:05.292Z,92.80
2018-02-16T23:15:33.483Z,92.90
2018-02-16T23:18:01.678Z,92.80
2018-02-16T23:20:29.887Z,92.80
2018-02-16T23:22:58.877Z,92.60
2018-02-16T23:25:27.825Z,92.80
2018-02-16T23:27:56.028Z,92.50
2018-02-16T23:30:24.248Z,92.40
2018-02-16T23:32:52.459Z,92.40
2018-02-16T23:35:20.689Z,92.40
2018-02-16T23:37:49.644Z,92.30
2018-02-16T23:40:17.873Z,92.30
2018-02-16T23:42:46.077Z,92.30
2018-02-16T23:45:15.348Z,92.00
2018-02-16T23:47:43.548Z,92.00
2018-02-16T23:50:12.510Z,92.10
2018-02-16T23:52:40.864Z,92.10
2018-02-16T23:55:09.060Z,92.00
2018-02-16T23:57:37.298Z,92.00
